This is the latest recevied weather packets stored in our database for station/object SR6WVX. If no packets are shown the sender has not sent any weather packets the latest 10 day(s).
| Time | Temp. | Humidity | Pressure | Rain* | Wind** | Luminosity | Snow |
|---|---|---|---|---|---|---|---|
| 1778090034 | 14.44° C | 77% | 1000 hPa | 0 mm | - | - | - |
| 1778089733 | 15° C | 75% | 999.9 hPa | 0 mm | - | - | - |
| 1778089433 | 15° C | 75% | 999.9 hPa | 0 mm | - | - | - |
| 1778089133 | 15.56° C | 73% | 999.7 hPa | 0 mm | - | - | - |
| 1778088833 | 16.11° C | 71% | 999.7 hPa | 0 mm | - | - | - |
| 1778088532 | 17.22° C | 67% | 999.6 hPa | 0 mm | - | - | - |
| 1778088232 | 18.89° C | 59% | 999.2 hPa | 0 mm | - | - | - |
| 1778087932 | 20.56° C | 53% | 999.5 hPa | 0 mm | - | - | - |
| 1778087631 | 21.67° C | 49% | 999.5 hPa | 0 mm | - | - | - |
| 1778087331 | 21.67° C | 47% | 999.2 hPa | 0 mm | - | - | - |
| 1778087031 | 22.22° C | 46% | 999.1 hPa | 0 mm | - | - | - |
| 1778086731 | 22.78° C | 46% | 999.2 hPa | 0 mm | - | - | - |
| 1778086430 | 23.33° C | 44% | 999.1 hPa | 0 mm | - | - | - |
| 1778086130 | 23.33° C | 43% | 999 hPa | 0 mm | - | - | - |
| 1778085830 | 24.44° C | 41% | 999 hPa | 0 mm | - | - | - |
| 1778085530 | 25.56° C | 39% | 999 hPa | 0 mm | - | - | - |
| 1778085229 | 26.11° C | 38% | 999.1 hPa | 0 mm | - | - | - |
| 1778084929 | 26.67° C | 37% | 999.1 hPa | 0 mm | - | - | - |
| 1778084629 | 27.22° C | 36% | 999.3 hPa | 0 mm | - | - | - |
| 1778084329 | 27.78° C | 36% | 999.2 hPa | 0 mm | - | - | - |
| 1778084028 | 27.78° C | 36% | 999.3 hPa | 0 mm | - | - | - |
| 1778083728 | 27.78° C | 34% | 999.3 hPa | 0 mm | - | - | - |
| 1778083428 | 28.33° C | 33% | 999.3 hPa | 0 mm | - | - | - |
| 1778083127 | 28.33° C | 34% | 999.2 hPa | 0 mm | - | - | - |
| 1778082827 | 30° C | 32% | 999.1 hPa | 0 mm | - | - | - |
* Rain latest hour (hover to see other rain measurements)
** Current wind speed in m/s (hover to see current wind gust speed)